Time;durP1;ratioP1;P1;durP2;ratioP2;P2;SDS_P1;SDS_P2;PMS_P1;PMS_P2;Temp;Humidity;BMP_temperature;BMP_pressure;BME280_temperature;BME280_humidity;BME280_pressure;Samples;Min_cycle;Max_cycle;Signal;HPM_P1;HPM_P2
2022/08/03 00:01:43;;;;;;;5.50;2.33;;;;;;;20.08;97.20;101440.81;10458867;28;20053;-75
2022/08/03 00:06:43;;;;;;;5.72;3.08;;;;;;;20.07;98.15;101441.91;10460641;28;20037;-75
2022/08/03 00:11:43;;;;;;;5.10;2.88;;;;;;;20.06;96.67;101442.13;10458994;28;20052;-74
2022/08/03 00:16:44;;;;;;;3.55;3.15;;;;;;;20.02;94.64;101439.03;10460508;28;20037;-75
2022/08/03 00:21:44;;;;;;;7.10;3.25;;;;;;;19.96;93.96;101434.53;10457325;28;20044;-75
2022/08/03 00:26:45;;;;;;;8.95;2.65;;;;;;;19.89;94.64;101431.13;10459389;28;20088;-74
2022/08/03 00:31:45;;;;;;;16.92;5.03;;;;;;;19.85;95.17;101422.53;10459113;28;20041;-74
2022/08/03 00:36:45;;;;;;;8.90;3.58;;;;;;;19.80;96.31;101422.41;10458964;28;20087;-75
2022/08/03 00:41:46;;;;;;;10.45;3.28;;;;;;;19.78;95.39;101427.31;10456311;28;20033;-75
2022/08/03 00:46:46;;;;;;;7.80;2.28;;;;;;;19.73;95.57;101428.06;10457552;28;20032;-74
2022/08/03 00:51:47;;;;;;;12.68;3.38;;;;;;;19.71;94.26;101424.72;10458478;28;20041;-74
2022/08/03 00:56:47;;;;;;;5.90;2.97;;;;;;;19.66;94.24;101410.91;10457804;28;20484;-74
2022/08/03 01:01:48;;;;;;;4.90;3.55;;;;;;;19.61;95.84;101412.69;10439797;28;20033;-74
2022/08/03 01:07:09;;;;;;;14.05;4.18;;;;;;;19.57;95.22;101406.00;10457927;28;20029;-74
2022/08/03 01:12:15;;;;;;;4.93;3.63;;;;;;;19.49;94.98;101404.47;10458343;28;20127;-74
2022/08/03 01:17:30;;;;;;;13.63;3.35;;;;;;;19.45;96.71;101406.88;10455626;28;20039;-74
2022/08/03 01:22:52;;;;;;;5.60;2.90;;;;;;;19.41;96.83;101410.38;10444281;28;20051;-74
2022/08/03 01:28:14;;;;;;;9.10;2.75;;;;;;;19.34;97.55;101395.97;10456685;28;20036;-76
2022/08/03 01:33:21;;;;;;;11.30;3.75;;;;;;;19.28;100.00;101400.50;10456815;28;20384;-75
2022/08/03 01:38:27;;;;;;;4.72;2.65;;;;;;;19.29;98.78;101405.75;10457764;28;20033;-74
2022/08/03 01:43:28;;;;;;;14.48;3.13;;;;;;;19.29;99.15;101393.94;10439509;28;20063;-74
2022/08/03 01:48:28;;;;;;;11.82;3.28;;;;;;;19.22;99.39;101394.06;10455914;28;20075;-74
2022/08/03 01:53:30;;;;;;;3.92;2.22;;;;;;;19.17;100.00;101384.88;10438600;28;20377;-74
2022/08/03 01:58:30;;;;;;;11.25;4.85;;;;;;;19.13;99.32;101390.03;10455672;28;20064;-74
2022/08/03 02:03:32;;;;;;;11.50;3.92;;;;;;;19.07;98.56;101398.41;10455028;28;20048;-74
2022/08/03 02:08:33;;;;;;;7.80;2.97;;;;;;;19.00;96.98;101388.38;10454863;28;20059;-74
2022/08/03 02:13:33;;;;;;;9.45;3.40;;;;;;;18.91;98.11;101384.34;10454850;28;20029;-75
2022/08/03 02:18:34;;;;;;;8.20;2.65;;;;;;;18.88;97.66;101387.56;10438877;28;20029;-75
2022/08/03 02:23:35;;;;;;;8.10;3.67;;;;;;;18.81;97.86;101384.94;10456673;28;20033;-74
2022/08/03 02:28:37;;;;;;;4.70;2.80;;;;;;;18.84;97.27;101385.56;10457282;28;20043;-75
2022/08/03 02:33:41;;;;;;;9.40;2.85;;;;;;;18.98;98.00;101386.94;10461897;28;20036;-74
2022/08/03 02:38:42;;;;;;;13.60;3.85;;;;;;;19.02;97.44;101379.94;10462973;28;20118;-74
2022/08/03 02:43:45;;;;;;;4.75;3.03;;;;;;;18.97;97.66;101379.81;10445073;28;20036;-75
2022/08/03 02:48:45;;;;;;;13.30;3.63;;;;;;;18.99;98.40;101367.50;10444832;28;20059;-74
2022/08/03 02:53:46;;;;;;;5.63;3.30;;;;;;;18.87;100.00;101366.69;10461202;28;20461;-74
2022/08/03 02:58:46;;;;;;;9.52;3.38;;;;;;;18.85;100.00;101365.25;10462330;28;20110;-74
2022/08/03 03:03:47;;;;;;;10.50;3.72;;;;;;;18.88;100.00;101353.81;10461007;28;20539;-74
2022/08/03 03:08:48;;;;;;;10.00;3.38;;;;;;;18.81;100.00;101353.94;10444014;28;20041;-74
2022/08/03 03:13:48;;;;;;;17.17;4.20;;;;;;;18.72;100.00;101366.31;10461741;28;20055;-74
2022/08/03 03:18:49;;;;;;;11.68;3.42;;;;;;;18.64;100.00;101372.19;10460253;28;20087;-74
2022/08/03 03:23:49;;;;;;;16.40;4.32;;;;;;;18.58;100.00;101368.50;10427068;28;20461;-74
2022/08/03 03:28:49;;;;;;;10.45;3.35;;;;;;;18.55;100.00;101366.22;10444398;28;20369;-74
2022/08/03 03:33:50;;;;;;;6.72;3.88;;;;;;;18.56;100.00;101368.72;10460312;28;20044;-74
2022/08/03 03:38:50;;;;;;;10.18;3.08;;;;;;;18.58;100.00;101372.06;10443569;28;20036;-74
2022/08/03 03:43:50;;;;;;;7.93;3.72;;;;;;;18.65;100.00;101371.09;10459885;28;20491;-74
2022/08/03 03:48:51;;;;;;;22.38;4.28;;;;;;;18.59;100.00;101372.91;10458635;28;20025;-74
2022/08/03 03:53:59;;;;;;;15.27;4.90;;;;;;;18.64;100.00;101375.75;10444518;28;20067;-74
2022/08/03 03:58:59;;;;;;;8.70;4.82;;;;;;;18.56;100.00;101374.19;10458354;28;20499;-74
2022/08/03 04:10:57;;;;;;;8.20;3.83;;;;;;;18.53;100.00;101374.69;10441574;28;20032;-74
2022/08/03 04:14:39;;;;;;;17.17;5.63;;;;;;;18.48;100.00;101373.75;10457870;28;20036;-74
2022/08/03 04:19:43;;;;;;;11.43;4.30;;;;;;;18.54;100.00;101378.28;10441936;28;20116;-74
2022/08/03 04:24:57;;;;;;;14.38;4.22;;;;;;;18.58;100.00;101384.94;10441550;28;20477;-75
2022/08/03 04:29:57;;;;;;;9.27;4.15;;;;;;;18.54;100.00;101384.59;10457606;28;20024;-74
2022/08/03 04:34:57;;;;;;;14.52;4.18;;;;;;;18.52;100.00;101388.66;10457931;28;20376;-78
2022/08/03 04:39:58;;;;;;;11.38;4.03;;;;;;;18.52;100.00;101388.66;10456633;28;20384;-81
2022/08/03 04:44:58;;;;;;;7.65;4.93;;;;;;;18.53;100.00;101385.66;10441603;28;20464;-80
2022/08/03 04:50:00;;;;;;;9.60;4.35;;;;;;;18.55;100.00;101389.00;10439968;28;20063;-80
2022/08/03 04:55:01;;;;;;;9.50;3.88;;;;;;;18.55;100.00;101397.22;10439922;28;20457;-81
2022/08/03 05:00:01;;;;;;;8.98;4.45;;;;;;;18.59;100.00;101394.84;10457091;28;20036;-81
2022/08/03 05:05:02;;;;;;;5.78;4.15;;;;;;;18.72;100.00;101408.34;10457041;28;20045;-74
2022/08/03 05:10:07;;;;;;;4.65;3.92;;;;;;;18.94;100.00;101413.22;10454953;28;20204;-73
2022/08/03 05:15:09;;;;;;;9.33;4.10;;;;;;;19.12;100.00;101423.22;10458455;28;20072;-73
2022/08/03 05:20:09;;;;;;;14.75;4.88;;;;;;;19.31;100.00;101416.50;10457135;28;20028;-74
2022/08/03 05:25:10;;;;;;;16.38;4.90;;;;;;;19.51;100.00;101419.63;10457097;28;20460;-75
2022/08/03 05:30:10;;;;;;;13.02;5.22;;;;;;;19.70;100.00;101416.75;10455828;28;20438;-75
2022/08/03 05:35:11;;;;;;;9.30;4.60;;;;;;;19.83;100.00;101418.34;10456872;28;20037;-75
2022/08/03 05:40:12;;;;;;;6.35;4.50;;;;;;;19.94;100.00;101412.81;10456876;28;20037;-75
2022/08/03 05:45:17;;;;;;;11.18;4.65;;;;;;;20.04;100.00;101412.16;10456791;28;20037;-76
2022/08/03 05:50:18;;;;;;;11.45;4.15;;;;;;;20.12;100.00;101427.38;10457047;28;20033;-75
2022/08/03 05:55:18;;;;;;;7.50;4.43;;;;;;;20.30;100.00;101424.41;10456084;28;20380;-74
2022/08/03 06:00:18;;;;;;;14.20;5.45;;;;;;;20.44;100.00;101422.16;10455584;28;20033;-75
2022/08/03 06:05:19;;;;;;;17.27;4.75;;;;;;;20.55;100.00;101421.28;10463144;28;20040;-75
2022/08/03 06:10:19;;;;;;;14.80;5.88;;;;;;;20.48;100.00;101417.81;10446896;28;20477;-75
2022/08/03 06:15:20;;;;;;;9.50;4.47;;;;;;;20.57;100.00;101416.34;10464612;28;20049;-75
2022/08/03 06:20:20;;;;;;;18.63;6.05;;;;;;;20.56;100.00;101417.44;10463769;28;20479;-75
2022/08/03 06:25:21;;;;;;;15.60;5.88;;;;;;;20.73;100.00;101425.66;10466344;28;20044;-76
2022/08/03 06:30:21;;;;;;;20.98;5.50;;;;;;;20.98;100.00;101422.44;10463331;28;20071;-76
2022/08/03 06:35:22;;;;;;;11.13;5.55;;;;;;;21.12;100.00;101434.75;10463824;28;20068;-75
2022/08/03 06:40:28;;;;;;;12.95;6.60;;;;;;;21.33;100.00;101432.25;10462465;28;20038;-76
2022/08/03 06:45:28;;;;;;;9.88;5.18;;;;;;;21.49;100.00;101434.13;10464030;28;20060;-75
2022/08/03 06:50:29;;;;;;;16.50;6.50;;;;;;;21.66;100.00;101430.47;10463011;28;20064;-75
2022/08/03 06:55:29;;;;;;;8.75;5.97;;;;;;;21.77;99.70;101438.59;10461677;28;20492;-76
2022/08/03 07:00:30;;;;;;;6.50;5.82;;;;;;;21.80;98.78;101440.00;10461295;28;20033;-75
2022/08/03 07:05:33;;;;;;;11.77;6.47;;;;;;;22.15;97.78;101446.97;10462006;28;20041;-76
2022/08/03 07:10:34;;;;;;;6.78;6.18;;;;;;;22.22;96.66;101447.63;10444306;28;20056;-76
2022/08/03 07:15:34;;;;;;;7.13;6.07;;;;;;;22.39;95.73;101462.09;10460520;28;20507;-76
2022/08/03 07:20:35;;;;;;;15.25;6.90;;;;;;;22.36;94.89;101464.56;10459672;28;20043;-76
2022/08/03 07:25:35;;;;;;;19.05;6.25;;;;;;;22.44;94.15;101469.59;10461455;28;20095;-76
2022/08/03 07:30:35;;;;;;;9.82;5.53;;;;;;;22.56;93.48;101478.53;10461071;28;20033;-77
2022/08/03 07:35:36;;;;;;;15.13;6.38;;;;;;;22.67;92.36;101484.97;10461017;28;20041;-76
2022/08/03 07:40:36;;;;;;;19.98;6.60;;;;;;;22.84;91.86;101477.34;10459433;28;20159;-76
2022/08/03 07:45:37;;;;;;;10.32;6.22;;;;;;;23.23;90.98;101482.63;10460186;28;20037;-77
2022/08/03 07:50:37;;;;;;;11.77;6.97;;;;;;;23.65;88.58;101485.28;10460835;28;20041;-77
2022/08/03 07:55:38;;;;;;;21.77;6.88;;;;;;;24.06;87.50;101484.59;10461953;28;20033;-77
2022/08/03 08:00:38;;;;;;;13.05;6.97;;;;;;;25.00;84.86;101488.78;10459843;28;20032;-76
2022/08/03 08:05:38;;;;;;;14.35;6.47;;;;;;;25.31;84.41;101485.13;10460199;28;20103;-77
2022/08/03 08:10:39;;;;;;;13.73;7.60;;;;;;;25.40;83.99;101480.63;10459772;28;20060;-77
2022/08/03 08:15:39;;;;;;;9.73;7.40;;;;;;;26.71;78.52;101479.28;10459269;28;20479;-78
2022/08/03 08:20:40;;;;;;;17.90;6.97;;;;;;;28.10;75.83;101479.34;10458201;28;20456;-77
2022/08/03 08:25:40;;;;;;;9.60;6.60;;;;;;;29.11;65.90;101475.97;10458082;28;20171;-77
2022/08/03 08:30:41;;;;;;;21.77;6.18;;;;;;;28.34;68.97;101473.69;10458957;28;20357;-78
2022/08/03 08:35:41;;;;;;;9.82;6.25;;;;;;;28.51;69.52;101473.97;10440980;28;20487;-77
2022/08/03 08:40:41;;;;;;;17.98;6.65;;;;;;;29.07;64.83;101470.19;10459694;28;20033;-78
2022/08/03 08:45:42;;;;;;;21.77;6.50;;;;;;;29.94;63.55;101465.56;10458672;28;20036;-79
2022/08/03 08:50:42;;;;;;;7.80;4.38;;;;;;;29.35;61.17;101475.75;10457414;28;20063;-79
2022/08/03 08:55:43;;;;;;;14.88;6.40;;;;;;;30.03;58.79;101476.81;10456960;28;20036;-78
2022/08/03 09:00:44;;;;;;;7.90;4.82;;;;;;;30.29;54.29;101482.66;10440719;28;20373;-79
2022/08/03 09:05:44;;;;;;;6.30;5.20;;;;;;;30.54;53.60;101489.56;10457524;28;20040;-78
2022/08/03 09:10:45;;;;;;;6.35;4.43;;;;;;;31.04;59.25;101497.75;10457100;28;20045;-79
2022/08/03 09:15:46;;;;;;;11.63;6.13;;;;;;;31.28;55.68;101495.41;10458130;28;20037;-79
2022/08/03 09:20:46;;;;;;;9.45;5.65;;;;;;;31.35;53.09;101499.75;10457121;28;20040;-79
2022/08/03 09:25:46;;;;;;;12.02;5.78;;;;;;;31.10;56.22;101487.25;10457806;28;20195;-78
2022/08/03 09:30:59;;;;;;;9.27;4.72;;;;;;;31.38;57.27;101494.31;10457216;28;20041;-79
2022/08/03 09:35:59;;;;;;;24.20;6.55;;;;;;;31.70;54.87;101498.69;10457538;28;20039;-78
2022/08/03 09:41:00;;;;;;;9.57;5.93;;;;;;;31.41;54.46;101490.88;10466286;28;20025;-79
2022/08/03 09:46:04;;;;;;;15.13;6.18;;;;;;;32.17;54.71;101487.72;10464149;28;20155;-79
2022/08/03 09:51:04;;;;;;;14.93;6.25;;;;;;;32.18;54.48;101485.75;10463693;28;20033;-79
2022/08/03 09:56:04;;;;;;;19.23;4.30;;;;;;;32.34;54.06;101486.06;10464961;28;20093;-79
2022/08/03 10:01:06;;;;;;;9.00;4.00;;;;;;;32.53;53.01;101483.75;10447681;28;20083;-79
2022/08/03 10:06:19;;;;;;;9.18;4.65;;;;;;;32.32;53.44;101483.56;10462947;28;20041;-79
2022/08/03 10:11:33;;;;;;;7.57;5.32;;;;;;;32.79;53.07;101485.66;10465653;28;20057;-79
2022/08/03 10:16:35;;;;;;;12.32;5.28;;;;;;;32.63;51.25;101497.41;10462966;28;20136;-79
2022/08/03 10:21:40;;;;;;;7.75;4.40;;;;;;;33.17;52.31;101487.72;10463998;28;20461;-79
2022/08/03 10:26:40;;;;;;;10.57;5.30;;;;;;;33.66;49.64;101482.50;10463087;28;20042;-80
2022/08/03 10:31:43;;;;;;;8.77;4.40;;;;;;;33.57;49.28;101482.59;10462653;28;20440;-80
2022/08/03 10:36:44;;;;;;;8.52;5.25;;;;;;;33.79;47.87;101471.03;10462668;28;20262;-80
2022/08/03 10:41:45;;;;;;;13.93;5.40;;;;;;;33.55;48.18;101484.91;10461683;28;20479;-79
2022/08/03 10:46:49;;;;;;;7.63;4.53;;;;;;;33.86;47.69;101473.28;10445596;28;20021;-80
2022/08/03 10:51:49;;;;;;;7.75;4.88;;;;;;;33.92;48.40;101468.25;10444265;28;20025;-79
2022/08/03 11:02:09;;;;;;;4.10;3.05;;;;;;;33.69;46.86;101471.41;10459676;28;20270;-79
2022/08/03 11:07:18;;;;;;;6.68;3.10;;;;;;;33.88;46.00;101468.13;10461040;28;20041;-79
2022/08/03 11:12:24;;;;;;;15.15;3.90;;;;;;;33.72;44.26;101459.50;10462986;28;20131;-80
2022/08/03 11:17:24;;;;;;;13.35;3.28;;;;;;;33.52;46.38;101457.50;10461017;28;20079;-80
2022/08/03 11:22:27;;;;;;;5.00;2.67;;;;;;;33.76;43.17;101463.28;10461570;28;20114;-79
2022/08/03 11:27:30;;;;;;;9.65;3.28;;;;;;;33.79;44.25;101467.38;10444236;28;20033;-79
2022/08/03 11:32:36;;;;;;;4.85;2.60;;;;;;;34.10;43.87;101454.94;10461985;28;20109;-80
2022/08/03 11:37:55;;;;;;;12.63;3.33;;;;;;;34.39;43.93;101448.38;10461124;28;20029;-79
2022/08/03 11:42:55;;;;;;;6.10;2.55;;;;;;;34.19;43.08;101452.88;10460298;28;20449;-79
2022/08/03 11:47:57;;;;;;;9.75;3.03;;;;;;;33.96;41.10;101453.19;10459259;28;20044;-79
2022/08/03 11:52:57;;;;;;;6.10;2.53;;;;;;;34.34;42.01;101454.22;10460432;28;20041;-79
2022/08/03 11:57:58;;;;;;;8.20;3.53;;;;;;;34.41;39.14;101441.22;10458700;28;20041;-79
2022/08/03 12:03:10;;;;;;;4.63;3.75;;;;;;;34.35;42.42;101439.81;10460521;28;20316;-79
2022/08/03 12:08:12;;;;;;;7.22;3.67;;;;;;;34.83;42.49;101443.09;10441925;28;20147;-80
2022/08/03 12:13:12;;;;;;;6.35;2.88;;;;;;;35.11;41.08;101448.91;10459513;28;20492;-79
2022/08/03 12:18:15;;;;;;;5.57;3.75;;;;;;;35.41;40.08;101441.03;10457969;28;20048;-78
2022/08/03 12:23:15;;;;;;;8.90;3.25;;;;;;;35.58;40.85;101438.00;10458266;28;20029;-79
2022/08/03 12:28:17;;;;;;;9.38;3.47;;;;;;;35.93;42.24;101445.03;10458814;28;20033;-79
2022/08/03 12:33:20;;;;;;;3.65;2.55;;;;;;;35.85;37.93;101430.75;10458710;28;20048;-79
2022/08/03 12:38:21;;;;;;;8.93;3.47;;;;;;;35.24;40.60;101430.03;10458588;28;20073;-80
2022/08/03 12:43:21;;;;;;;4.22;2.97;;;;;;;35.06;36.48;101427.44;10459948;28;20035;-79
2022/08/03 12:48:22;;;;;;;4.80;3.25;;;;;;;34.53;38.09;101431.22;10456363;28;20037;-79
2022/08/03 12:53:27;;;;;;;5.30;3.90;;;;;;;34.77;39.92;101434.06;10458483;28;20057;-79
2022/08/03 12:58:32;;;;;;;4.57;2.40;;;;;;;34.36;36.04;101430.19;10458932;28;20093;-77
2022/08/03 13:03:47;;;;;;;10.77;3.55;;;;;;;33.92;41.00;101417.69;10456601;28;20029;-78
2022/08/03 13:08:47;;;;;;;8.93;2.90;;;;;;;33.31;38.02;101426.53;10456114;28;20140;-79
2022/08/03 13:13:48;;;;;;;8.18;3.03;;;;;;;32.78;40.38;101420.34;10457115;28;20040;-78
2022/08/03 13:18:50;;;;;;;8.93;2.85;;;;;;;33.94;39.89;101430.22;10439551;28;20449;-78
2022/08/03 13:23:51;;;;;;;3.08;2.78;;;;;;;34.17;40.10;101415.84;10456780;28;20535;-79
2022/08/03 13:28:51;;;;;;;7.03;2.40;;;;;;;33.51;39.93;101420.19;10456973;28;20037;-78
2022/08/03 13:33:51;;;;;;;8.63;2.42;;;;;;;34.05;39.92;101429.84;10423288;28;20388;-78
2022/08/03 13:38:52;;;;;;;15.30;3.43;;;;;;;34.48;40.19;101420.97;10456572;28;20041;-78
2022/08/03 13:43:52;;;;;;;9.53;2.33;;;;;;;34.05;38.13;101419.44;10458043;28;20641;-78
2022/08/03 13:48:53;;;;;;;3.47;2.63;;;;;;;34.58;40.29;101419.75;10455400;28;20285;-78
2022/08/03 13:53:53;;;;;;;10.70;2.47;;;;;;;34.57;39.72;101418.09;10455416;28;20063;-78
2022/08/03 13:58:54;;;;;;;9.00;1.83;;;;;;;34.72;39.40;101414.63;10455689;28;20273;-78
2022/08/03 14:03:55;;;;;;;6.78;2.22;;;;;;;34.28;39.93;101400.19;10455456;28;20420;-78
2022/08/03 14:08:55;;;;;;;1.88;1.63;;;;;;;34.29;39.94;101396.19;10459506;28;20088;-78
2022/08/03 14:13:56;;;;;;;2.10;2.00;;;;;;;34.21;39.81;101399.94;10456874;28;20037;-78
2022/08/03 14:18:56;;;;;;;3.63;2.17;;;;;;;34.18;39.78;101395.00;10454694;28;20262;-78
2022/08/03 14:23:56;;;;;;;8.83;2.20;;;;;;;33.94;40.27;101396.50;10458337;28;20265;-78
2022/08/03 14:28:57;;;;;;;5.35;1.58;;;;;;;34.12;40.00;101390.78;10464087;28;20277;-78
2022/08/03 14:33:57;;;;;;;6.00;1.83;;;;;;;33.85;39.96;101394.94;10464527;28;20061;-78
2022/08/03 14:38:58;;;;;;;9.23;1.40;;;;;;;33.31;38.71;101376.00;10462822;28;20048;-78
2022/08/03 14:43:58;;;;;;;4.63;2.23;;;;;;;33.00;39.11;101382.00;10461867;28;20278;-78
2022/08/03 14:48:58;;;;;;;2.65;2.05;;;;;;;33.05;39.61;101382.59;10462158;28;20769;-78
2022/08/03 14:53:59;;;;;;;1.35;1.35;;;;;;;32.95;38.16;101379.34;10461916;28;20091;-77
2022/08/03 14:58:59;;;;;;;1.65;1.55;;;;;;;32.80;40.04;101375.97;10462048;28;20040;-78
2022/08/03 15:04:00;;;;;;;7.20;1.97;;;;;;;32.72;39.59;101367.56;10463136;28;20048;-78
2022/08/03 15:09:00;;;;;;;9.43;1.98;;;;;;;32.73;39.48;101370.03;10462159;28;20680;-78
2022/08/03 15:14:00;;;;;;;3.50;1.80;;;;;;;32.51;37.85;101359.06;10461524;28;20077;-77
2022/08/03 15:19:01;;;;;;;3.00;1.50;;;;;;;32.28;39.60;101359.28;10462286;28;20274;-78
2022/08/03 15:24:01;;;;;;;3.20;1.37;;;;;;;32.45;41.08;101350.00;10462404;28;20044;-77
2022/08/03 15:29:02;;;;;;;20.85;3.22;;;;;;;32.35;41.08;101348.38;10460460;28;20266;-77
2022/08/03 15:34:02;;;;;;;4.78;2.20;;;;;;;32.43;41.66;101349.53;10460054;28;20427;-78
2022/08/03 15:39:04;;;;;;;3.85;3.20;;;;;;;32.37;41.61;101356.47;10462389;28;20048;-77
2022/08/03 15:44:04;;;;;;;12.70;2.20;;;;;;;32.36;42.37;101346.41;10460034;28;20025;-77
2022/08/03 15:49:04;;;;;;;3.27;2.10;;;;;;;32.16;41.94;101334.75;10460463;28;20091;-78
2022/08/03 15:54:05;;;;;;;2.08;1.73;;;;;;;31.91;41.67;101332.84;10459279;28;20305;-77
2022/08/03 15:59:06;;;;;;;4.47;2.78;;;;;;;31.74;41.43;101334.44;10442191;28;20033;-77
2022/08/03 16:04:06;;;;;;;2.53;2.33;;;;;;;31.73;42.77;101332.81;10443144;28;20037;-78
2022/08/03 16:09:07;;;;;;;6.23;2.07;;;;;;;31.63;42.80;101335.13;10459884;28;20285;-77
2022/08/03 16:14:07;;;;;;;3.40;2.42;;;;;;;31.37;43.37;101333.16;10458440;28;20748;-77
2022/08/03 16:19:07;;;;;;;2.30;1.83;;;;;;;31.25;43.60;101332.94;10457486;28;20033;-77
2022/08/03 16:24:08;;;;;;;6.13;2.33;;;;;;;30.76;43.90;101321.78;10458046;28;20364;-77
2022/08/03 16:29:08;;;;;;;5.28;3.45;;;;;;;30.15;44.23;101323.44;10458204;28;20029;-77
2022/08/03 16:34:09;;;;;;;3.77;2.10;;;;;;;29.72;44.49;101323.16;10457458;28;20400;-77
2022/08/03 16:39:09;;;;;;;7.13;2.53;;;;;;;29.41;44.45;101324.66;10458727;28;20348;-77
2022/08/03 16:44:09;;;;;;;7.47;2.60;;;;;;;29.19;45.14;101324.63;10459339;28;20281;-77
2022/08/03 16:49:10;;;;;;;14.37;7.33;;;;;;;29.00;45.05;101315.53;10456986;28;20041;-76
2022/08/03 16:54:11;;;;;;;67.97;25.83;;;;;;;28.95;45.20;101319.28;10456566;28;20270;-76
2022/08/03 16:59:11;;;;;;;6.95;5.63;;;;;;;28.83;45.25;101330.13;10457485;28;20048;-76
2022/08/03 17:04:11;;;;;;;5.72;4.10;;;;;;;28.69;45.84;101325.38;10456984;28;20064;-76
2022/08/03 17:09:13;;;;;;;3.47;3.00;;;;;;;28.55;45.76;101323.72;10440115;28;20380;-76
2022/08/03 17:14:19;;;;;;;5.45;2.17;;;;;;;28.31;46.32;101326.66;10456037;28;20040;-76
2022/08/03 17:19:20;;;;;;;13.70;3.47;;;;;;;28.09;46.69;101317.00;10439538;28;20072;-76
2022/08/03 17:24:32;;;;;;;3.30;2.47;;;;;;;27.97;46.88;101323.06;10458129;28;20116;-76
2022/08/03 17:29:33;;;;;;;12.45;1.95;;;;;;;27.74;47.55;101326.78;10457022;28;20279;-76
2022/08/03 17:34:34;;;;;;;3.22;2.10;;;;;;;27.58;47.53;101320.63;10456349;28;20484;-76
2022/08/03 17:39:34;;;;;;;5.05;2.63;;;;;;;27.44;47.60;101323.34;10457048;28;20190;-76
2022/08/03 17:44:35;;;;;;;2.33;2.03;;;;;;;27.27;48.03;101332.19;10456619;28;20068;-76
2022/08/03 17:49:35;;;;;;;4.05;2.38;;;;;;;27.12;48.25;101324.88;10456623;28;20162;-76
2022/08/03 17:54:46;;;;;;;5.75;2.60;;;;;;;26.96;48.75;101330.91;10457174;28;20453;-76
2022/08/03 17:59:52;;;;;;;13.15;2.97;;;;;;;26.92;48.63;101330.69;10460761;28;20037;-76
2022/08/03 18:05:02;;;;;;;8.90;2.78;;;;;;;26.83;48.39;101327.72;10465067;28;20044;-76
2022/08/03 18:10:03;;;;;;;4.95;2.53;;;;;;;26.66;49.15;101327.38;10447483;28;20114;-75
2022/08/03 18:15:04;;;;;;;3.95;2.53;;;;;;;26.55;49.38;101332.25;10462836;28;20045;-76
2022/08/03 18:20:04;;;;;;;5.28;2.65;;;;;;;26.50;49.48;101326.72;10446115;28;20032;-75
2022/08/03 18:25:05;;;;;;;16.50;2.00;;;;;;;26.43;49.42;101329.00;10462531;28;20037;-76
2022/08/03 18:30:06;;;;;;;5.45;3.25;;;;;;;26.32;49.32;101319.94;10462280;28;20041;-76
2022/08/03 18:35:07;;;;;;;3.53;3.22;;;;;;;26.19;49.44;101328.94;10462659;28;20029;-75
2022/08/03 18:40:07;;;;;;;5.55;3.55;;;;;;;26.08;49.41;101325.44;10445870;28;20494;-70
2022/08/03 18:45:08;;;;;;;4.78;1.98;;;;;;;25.97;49.58;101321.09;10461093;28;20094;-70
2022/08/03 18:50:39;;;;;;;9.52;3.33;;;;;;;25.82;50.18;101316.53;10461577;28;20102;-69
2022/08/03 18:55:46;;;;;;;12.77;3.70;;;;;;;25.67;50.03;101308.28;10462054;28;20099;-69
2022/08/03 19:00:55;;;;;;;7.10;2.90;;;;;;;25.53;50.19;101308.13;10444094;28;20464;-69
2022/08/03 19:05:58;;;;;;;2.55;2.35;;;;;;;25.40;50.24;101311.50;10444236;28;20499;-69
2022/08/03 19:11:00;;;;;;;6.60;3.63;;;;;;;25.25;50.44;101312.44;10460393;28;20053;-69
2022/08/03 19:16:02;;;;;;;5.50;2.80;;;;;;;25.13;50.86;101311.97;10460992;28;20065;-69
2022/08/03 19:21:02;;;;;;;7.18;3.63;;;;;;;25.02;50.89;101319.47;10444134;28;20053;-69
2022/08/03 19:26:03;;;;;;;3.97;2.03;;;;;;;24.91;51.15;101309.53;10460820;28;20056;-69
2022/08/03 19:31:03;;;;;;;4.55;2.38;;;;;;;24.79;51.24;101319.03;10459824;28;20040;-69
2022/08/03 19:36:04;;;;;;;6.13;2.13;;;;;;;24.71;51.45;101325.13;10462039;28;20053;-69
2022/08/03 19:41:05;;;;;;;7.50;2.83;;;;;;;24.61;51.48;101322.41;10443009;28;20024;-71
2022/08/03 19:46:12;;;;;;;6.55;2.58;;;;;;;24.51;52.04;101327.97;10460379;28;20041;-68
2022/08/03 19:51:12;;;;;;;6.68;2.80;;;;;;;24.42;52.23;101326.88;10459176;28;20066;-69
2022/08/03 19:56:13;;;;;;;7.68;2.88;;;;;;;24.31;52.36;101326.03;10458057;28;20056;-68
2022/08/03 20:01:13;;;;;;;2.45;1.90;;;;;;;24.18;52.74;101319.13;10459593;28;20124;-68
2022/08/03 20:06:19;;;;;;;3.05;2.17;;;;;;;24.04;55.20;101316.09;10458121;28;20052;-68
2022/08/03 20:11:19;;;;;;;2.17;1.97;;;;;;;23.92;54.89;101310.00;10457511;28;20044;-69
2022/08/03 20:16:20;;;;;;;3.72;2.55;;;;;;;23.81;55.04;101309.19;10459170;28;20044;-69
2022/08/03 20:21:22;;;;;;;6.43;2.90;;;;;;;23.73;55.03;101312.50;10458965;28;20123;-70
2022/08/03 20:26:22;;;;;;;6.75;2.92;;;;;;;23.62;55.38;101297.00;10453628;28;20044;-76
2022/08/03 20:31:22;;;;;;;6.35;3.75;;;;;;;23.56;56.36;101306.38;10440850;28;20044;-76
2022/08/03 20:36:23;;;;;;;3.53;2.67;;;;;;;23.49;57.49;101305.81;10458311;28;20061;-76
2022/08/03 20:41:23;;;;;;;6.57;3.30;;;;;;;23.43;58.63;101308.56;10459620;28;20041;-77
2022/08/03 20:46:24;;;;;;;4.85;2.88;;;;;;;23.39;57.97;101307.47;10458215;28;20071;-76
2022/08/03 20:51:24;;;;;;;7.05;3.38;;;;;;;23.30;57.70;101314.63;10456743;28;20029;-78
2022/08/03 20:56:25;;;;;;;4.30;3.38;;;;;;;23.19;58.38;101302.69;10440084;28;20033;-76
2022/08/03 21:01:25;;;;;;;5.55;2.35;;;;;;;23.03;59.43;101297.41;10457641;28;20364;-75
2022/08/03 21:06:29;;;;;;;3.67;2.83;;;;;;;22.98;59.01;101292.72;10459252;28;20106;-75
2022/08/03 21:11:36;;;;;;;4.25;3.28;;;;;;;22.92;59.05;101283.53;10458589;28;20053;-75
2022/08/03 21:16:36;;;;;;;;;;;;;;;22.90;58.95;101282.97;10456713;28;20053;-75
2022/08/03 21:21:37;;;;;;;3.22;2.92;;;;;;;22.88;58.99;101282.44;10457084;28;20362;-75
2022/08/03 21:26:38;;;;;;;5.05;2.95;;;;;;;22.82;59.06;101286.28;10457536;28;20063;-76
2022/08/03 21:31:39;;;;;;;5.80;2.67;;;;;;;22.78;58.94;101285.13;10456850;28;20119;-75
2022/08/03 21:36:39;;;;;;;7.00;3.33;;;;;;;22.71;59.20;101292.84;10456496;28;20427;-75
2022/08/03 21:41:40;;;;;;;3.47;3.00;;;;;;;22.65;59.22;101282.88;10456099;28;20037;-75
2022/08/03 21:46:40;;;;;;;6.13;3.40;;;;;;;22.60;59.41;101278.16;10458315;28;20033;-74
2022/08/03 21:51:41;;;;;;;2.75;2.55;;;;;;;22.57;59.55;101275.13;10442887;28;20029;-74
2022/08/03 21:56:41;;;;;;;8.57;2.65;;;;;;;22.58;59.76;101271.25;10456618;28;20057;-74
2022/08/03 22:01:44;;;;;;;4.00;3.42;;;;;;;22.55;59.78;101269.03;10455208;28;20054;-74
2022/08/03 22:06:44;;;;;;;4.75;2.92;;;;;;;22.47;60.54;101268.44;10438908;28;20056;-74
2022/08/03 22:11:46;;;;;;;7.32;3.53;;;;;;;22.45;61.87;101258.75;10438308;28;20083;-74
2022/08/03 22:16:47;;;;;;;4.57;2.78;;;;;;;22.41;61.36;101244.69;10456684;28;20119;-74
2022/08/03 22:21:48;;;;;;;3.72;2.63;;;;;;;22.38;61.94;101259.00;10456046;28;20029;-74
2022/08/03 22:32:07;;;;;;;17.65;3.65;;;;;;;22.30;62.81;101262.25;10454600;28;20119;-75
2022/08/03 22:37:08;;;;;;;5.45;3.70;;;;;;;22.23;62.95;101261.69;10456935;28;20448;-75
2022/08/03 22:42:08;;;;;;;3.58;2.42;;;;;;;22.13;62.68;101264.34;10454591;28;20028;-74
2022/08/03 22:47:08;;;;;;;12.77;2.95;;;;;;;22.05;62.76;101266.50;10459029;28;20067;-74
2022/08/03 22:52:13;;;;;;;8.93;2.95;;;;;;;21.95;63.83;101269.19;10461751;28;20461;-74
2022/08/03 22:57:13;;;;;;;2.90;2.60;;;;;;;21.89;63.62;101274.91;10462803;28;20546;-74
2022/08/03 23:02:18;;;;;;;3.90;2.72;;;;;;;21.85;63.84;101268.28;10463692;28;20118;-75
2022/08/03 23:07:20;;;;;;;7.50;2.95;;;;;;;21.84;63.95;101270.22;10460573;28;20075;-74
2022/08/03 23:12:21;;;;;;;5.20;3.65;;;;;;;21.85;63.99;101271.03;10461250;28;20053;-75
2022/08/03 23:17:22;;;;;;;5.32;2.75;;;;;;;21.79;65.39;101261.88;10444106;28;20029;-74